createdAt,value
2023-05-22T00:00:23.771Z,24.57
2023-05-22T00:01:23.692Z,24.58
2023-05-22T00:02:23.678Z,24.55
2023-05-22T00:03:23.575Z,24.50
2023-05-22T00:04:23.492Z,24.43
2023-05-22T00:05:23.445Z,24.42
2023-05-22T00:06:23.374Z,24.47
2023-05-22T00:07:23.311Z,24.51
2023-05-22T00:08:23.247Z,24.47
2023-05-22T00:09:23.185Z,24.45
2023-05-22T00:10:23.124Z,24.39
2023-05-22T00:11:23.077Z,24.39
2023-05-22T00:12:23.018Z,24.36
2023-05-22T00:13:22.992Z,24.38
2023-05-22T00:14:22.876Z,24.42
2023-05-22T00:15:22.833Z,24.32
2023-05-22T00:16:22.825Z,24.32
2023-05-22T00:17:22.815Z,24.35
2023-05-22T00:18:22.642Z,24.26
2023-05-22T00:19:22.622Z,24.24
2023-05-22T00:20:22.546Z,24.26
2023-05-22T00:21:22.449Z,24.26
2023-05-22T00:22:22.404Z,24.23
2023-05-22T00:23:22.373Z,24.06
2023-05-22T00:24:22.285Z,24.21
2023-05-22T00:25:22.202Z,24.10
2023-05-22T00:26:22.169Z,24.17
2023-05-22T00:27:22.089Z,24.18
2023-05-22T00:28:22.056Z,24.11
2023-05-22T00:29:21.987Z,24.21
2023-05-22T00:30:21.932Z,24.10
2023-05-22T00:31:21.893Z,24.10
2023-05-22T00:32:21.835Z,24.11
2023-05-22T00:33:21.743Z,24.08
2023-05-22T00:34:21.705Z,24.06
2023-05-22T00:35:21.653Z,24.10
2023-05-22T00:36:21.569Z,24.08
2023-05-22T00:37:21.496Z,24.10
2023-05-22T00:38:21.446Z,24.05
2023-05-22T00:39:21.415Z,24.02
2023-05-22T00:40:21.322Z,24.02
2023-05-22T00:41:21.246Z,24.08
2023-05-22T00:42:21.194Z,23.99
2023-05-22T00:43:21.129Z,24.10
2023-05-22T00:44:21.079Z,24.03
2023-05-22T00:45:21.028Z,24.08
2023-05-22T00:46:20.985Z,23.99
2023-05-22T00:47:20.892Z,23.93
2023-05-22T00:48:20.826Z,24.05
2023-05-22T00:49:20.766Z,23.95
2023-05-22T00:50:20.758Z,23.98
2023-05-22T00:51:20.673Z,23.96
2023-05-22T00:52:20.618Z,23.99
2023-05-22T00:53:20.584Z,23.96
2023-05-22T00:54:20.457Z,23.93
2023-05-22T00:55:20.391Z,23.95
2023-05-22T00:56:20.339Z,23.99
2023-05-22T00:57:20.286Z,23.93
2023-05-22T00:58:20.306Z,23.91
2023-05-22T00:59:20.169Z,23.87
2023-05-22T01:00:20.138Z,23.87
2023-05-22T01:01:20.079Z,23.81
2023-05-22T01:02:19.973Z,23.84
2023-05-22T01:03:20.014Z,23.81
2023-05-22T01:04:19.952Z,23.83
2023-05-22T01:05:19.788Z,23.78
2023-05-22T01:06:19.760Z,23.80
2023-05-22T01:07:19.686Z,23.80
2023-05-22T01:08:19.633Z,23.80
2023-05-22T01:09:19.561Z,23.80
2023-05-22T01:10:19.516Z,23.69
2023-05-22T01:11:19.450Z,23.68
2023-05-22T01:12:19.355Z,23.65
2023-05-22T01:13:19.309Z,23.63
2023-05-22T01:14:19.254Z,23.63
2023-05-22T01:15:19.188Z,23.73
2023-05-22T01:16:19.219Z,23.65
2023-05-22T01:17:19.070Z,23.71
2023-05-22T01:18:19.003Z,23.68
2023-05-22T01:19:19.002Z,23.68
2023-05-22T01:20:18.916Z,23.56
2023-05-22T01:21:18.827Z,23.62
2023-05-22T01:22:18.771Z,23.54
2023-05-22T01:23:18.692Z,23.54
2023-05-22T01:24:18.636Z,23.58
2023-05-22T01:25:18.570Z,23.51
2023-05-22T01:26:18.506Z,23.50
2023-05-22T01:27:18.468Z,23.50
2023-05-22T01:28:18.395Z,23.44
2023-05-22T01:29:18.337Z,23.43
2023-05-22T01:30:18.266Z,23.46
2023-05-22T01:31:18.211Z,23.46
2023-05-22T01:32:18.162Z,23.41
2023-05-22T01:33:18.232Z,23.34
2023-05-22T01:34:18.065Z,23.28
2023-05-22T01:35:17.975Z,23.37
2023-05-22T01:36:17.907Z,23.39
2023-05-22T01:37:17.848Z,23.27
2023-05-22T01:38:17.785Z,23.32
2023-05-22T01:39:17.727Z,23.23
2023-05-22T01:40:17.697Z,23.27
2023-05-22T01:41:17.601Z,23.32
2023-05-22T01:42:17.566Z,23.20
2023-05-22T01:43:17.485Z,23.23
2023-05-22T01:44:17.462Z,23.21
2023-05-22T01:45:17.396Z,23.21
2023-05-22T01:46:17.337Z,23.18
2023-05-22T01:47:17.237Z,23.25
2023-05-22T01:48:17.171Z,23.23
2023-05-22T01:49:17.107Z,23.15
2023-05-22T01:50:17.063Z,23.17
2023-05-22T01:51:16.987Z,23.17
2023-05-22T01:52:16.939Z,23.17
2023-05-22T01:53:16.875Z,23.17
2023-05-22T01:54:16.818Z,23.08
2023-05-22T01:55:16.736Z,23.20
2023-05-22T01:56:16.698Z,23.03
2023-05-22T01:57:16.646Z,23.12
2023-05-22T01:58:16.564Z,23.08
2023-05-22T01:59:16.511Z,23.12
2023-05-22T02:00:16.463Z,23.08
2023-05-22T02:01:16.414Z,23.13
2023-05-22T02:02:16.344Z,23.08
2023-05-22T02:03:16.420Z,23.03
2023-05-22T02:04:16.211Z,23.08
2023-05-22T02:05:16.164Z,23.09
2023-05-22T02:06:16.083Z,23.12
2023-05-22T02:07:16.042Z,23.05
2023-05-22T02:08:15.961Z,23.00
2023-05-22T02:09:15.889Z,23.08
2023-05-22T02:10:15.850Z,23.00
2023-05-22T02:11:15.802Z,22.99
2023-05-22T02:12:15.731Z,23.03
2023-05-22T02:13:15.664Z,22.99
2023-05-22T02:14:15.630Z,22.98
2023-05-22T02:15:15.536Z,22.94
2023-05-22T02:16:15.598Z,22.91
2023-05-22T02:17:15.419Z,22.91
2023-05-22T02:18:15.404Z,22.96
2023-05-22T02:19:15.399Z,22.96
2023-05-22T02:20:15.392Z,22.90
2023-05-22T02:21:15.155Z,22.91
2023-05-22T02:22:15.111Z,22.91
2023-05-22T02:23:15.043Z,22.91
2023-05-22T02:24:14.981Z,22.93
2023-05-22T02:25:15.072Z,22.91
2023-05-22T02:26:14.857Z,22.90
2023-05-22T02:27:14.782Z,22.85
2023-05-22T02:28:14.752Z,22.83
2023-05-22T02:29:14.662Z,22.85
2023-05-22T02:30:14.631Z,22.81
2023-05-22T02:31:14.620Z,22.76
2023-05-22T02:32:14.517Z,22.88
2023-05-22T02:33:14.445Z,22.88
2023-05-22T02:34:14.370Z,22.83
2023-05-22T02:35:14.322Z,22.81
2023-05-22T02:36:14.258Z,22.80
2023-05-22T02:37:14.309Z,22.93
2023-05-22T02:38:14.127Z,22.84
2023-05-22T02:39:14.064Z,22.83
2023-05-22T02:40:14.024Z,22.84
2023-05-22T02:41:13.942Z,22.83
2023-05-22T02:42:13.908Z,22.76
2023-05-22T02:43:13.856Z,22.84
2023-05-22T02:44:13.813Z,22.84
2023-05-22T02:45:13.699Z,22.78
2023-05-22T02:46:13.672Z,22.85
2023-05-22T02:47:13.632Z,22.88
2023-05-22T02:48:13.520Z,22.87
2023-05-22T02:49:13.458Z,22.73
2023-05-22T02:50:13.394Z,22.83
2023-05-22T02:51:13.325Z,22.84
2023-05-22T02:52:13.246Z,22.75
2023-05-22T02:53:13.212Z,22.83
2023-05-22T02:54:13.173Z,22.83
2023-05-22T02:55:13.137Z,22.76
2023-05-22T02:56:13.018Z,22.72
2023-05-22T02:57:12.953Z,22.75
2023-05-22T02:58:12.912Z,22.81
2023-05-22T02:59:12.825Z,22.85
2023-05-22T03:00:12.772Z,22.76
2023-05-22T03:01:12.761Z,22.68
2023-05-22T03:02:12.646Z,22.75
2023-05-22T03:03:12.874Z,22.65
2023-05-22T03:04:12.807Z,22.76
2023-05-22T03:05:12.458Z,22.66
2023-05-22T03:06:12.388Z,22.70
2023-05-22T03:07:12.354Z,22.63
2023-05-22T03:08:12.280Z,22.65
2023-05-22T03:09:12.204Z,22.63
2023-05-22T03:10:12.165Z,22.70
2023-05-22T03:11:12.089Z,22.62
2023-05-22T03:12:12.051Z,22.65
2023-05-22T03:13:11.977Z,22.65
2023-05-22T03:14:11.903Z,22.63
2023-05-22T03:15:11.869Z,22.63
2023-05-22T03:16:11.845Z,22.60
2023-05-22T03:17:11.723Z,22.65
2023-05-22T03:18:11.811Z,22.60
2023-05-22T03:19:11.671Z,22.55
2023-05-22T03:20:11.559Z,22.63
2023-05-22T03:21:11.503Z,22.60
2023-05-22T03:22:11.415Z,22.53
2023-05-22T03:23:11.352Z,22.57
2023-05-22T03:24:11.291Z,22.54
2023-05-22T03:25:11.252Z,22.53
2023-05-22T03:26:11.218Z,22.54
2023-05-22T03:27:11.127Z,22.47
2023-05-22T03:28:11.135Z,22.48
2023-05-22T03:29:11.130Z,22.45
2023-05-22T03:30:10.949Z,22.47
2023-05-22T03:31:10.868Z,22.51
2023-05-22T03:32:10.819Z,22.48
2023-05-22T03:33:10.815Z,22.47
2023-05-22T03:34:10.723Z,22.57
2023-05-22T03:35:10.633Z,22.48
2023-05-22T03:36:10.561Z,22.41
2023-05-22T03:37:10.492Z,22.48
2023-05-22T03:38:10.437Z,22.39
2023-05-22T03:39:10.393Z,22.36
2023-05-22T03:40:10.322Z,22.41
2023-05-22T03:41:10.243Z,22.45
2023-05-22T03:42:10.191Z,22.44
2023-05-22T03:43:10.143Z,22.48
2023-05-22T03:44:10.093Z,22.47
2023-05-22T03:45:10.001Z,22.38
2023-05-22T03:46:09.989Z,22.48
2023-05-22T03:47:09.883Z,22.50
2023-05-22T03:48:09.883Z,22.50
2023-05-22T03:49:09.757Z,22.50
2023-05-22T03:50:09.705Z,22.57
2023-05-22T03:51:09.639Z,22.59
2023-05-22T03:52:09.573Z,22.51
2023-05-22T03:53:09.532Z,22.51
2023-05-22T03:54:09.447Z,22.55
2023-05-22T03:55:09.395Z,22.63
2023-05-22T03:56:09.327Z,22.66
2023-05-22T03:57:09.272Z,22.59
2023-05-22T03:58:09.216Z,22.72
2023-05-22T03:59:09.136Z,22.75
2023-05-22T04:00:09.082Z,22.68
2023-05-22T04:01:09.016Z,22.75
2023-05-22T04:02:08.984Z,22.72
2023-05-22T04:03:09.074Z,22.72
2023-05-22T04:04:08.848Z,22.81
2023-05-22T04:05:08.862Z,22.81
2023-05-22T04:06:08.705Z,22.73
2023-05-22T04:07:08.658Z,22.75
2023-05-22T04:08:08.649Z,22.72
2023-05-22T04:09:08.532Z,22.69
2023-05-22T04:10:08.469Z,22.76
2023-05-22T04:11:08.419Z,22.84
2023-05-22T04:12:08.378Z,22.80
2023-05-22T04:13:08.295Z,22.72
2023-05-22T04:14:08.251Z,22.83
2023-05-22T04:15:08.156Z,22.88
2023-05-22T04:16:08.155Z,22.88
2023-05-22T04:17:08.037Z,22.83
2023-05-22T04:18:08.066Z,22.85
2023-05-22T04:19:07.975Z,22.83
2023-05-22T04:20:07.875Z,22.83
2023-05-22T04:21:07.839Z,22.85
2023-05-22T04:22:07.770Z,22.90
2023-05-22T04:23:07.720Z,22.90
2023-05-22T04:24:07.700Z,22.90
2023-05-22T04:25:07.563Z,22.94
2023-05-22T04:26:07.492Z,22.90
2023-05-22T04:27:07.420Z,22.88
2023-05-22T04:28:07.366Z,23.05
2023-05-22T04:29:07.311Z,23.02
2023-05-22T04:30:07.239Z,23.08
2023-05-22T04:31:07.220Z,23.03
2023-05-22T04:32:07.115Z,23.18
2023-05-22T04:33:07.109Z,23.13
2023-05-22T04:34:06.983Z,23.18
2023-05-22T04:35:06.935Z,23.18
2023-05-22T04:36:06.859Z,23.17
2023-05-22T04:37:06.898Z,23.21
2023-05-22T04:38:06.871Z,23.36
2023-05-22T04:39:06.699Z,23.46
2023-05-22T04:40:06.622Z,23.48
2023-05-22T04:41:06.550Z,23.47
2023-05-22T04:42:06.510Z,23.48
2023-05-22T04:43:06.442Z,23.50
2023-05-22T04:44:06.417Z,23.61
2023-05-22T04:45:06.331Z,23.62
2023-05-22T04:46:06.264Z,23.61
2023-05-22T04:47:07.734Z,23.66
2023-05-22T04:48:06.195Z,23.63
2023-05-22T04:49:06.077Z,23.65
2023-05-22T04:50:05.995Z,23.68
2023-05-22T04:51:05.961Z,23.71
2023-05-22T04:52:05.889Z,23.68
2023-05-22T04:53:05.874Z,23.62
2023-05-22T04:54:05.807Z,23.54
2023-05-22T04:55:06.110Z,23.59
2023-05-22T04:56:05.642Z,23.59
2023-05-22T04:57:05.609Z,23.55
2023-05-22T04:58:05.530Z,23.50
2023-05-22T04:59:05.663Z,23.41
2023-05-22T05:00:05.442Z,23.48
2023-05-22T05:01:05.490Z,23.41
2023-05-22T05:02:05.272Z,23.44
2023-05-22T05:03:05.253Z,23.44
2023-05-22T05:04:05.187Z,23.43
2023-05-22T05:05:05.088Z,23.43
2023-05-22T05:06:05.056Z,23.47
2023-05-22T05:07:05.036Z,23.41
2023-05-22T05:08:04.931Z,23.50
2023-05-22T05:09:04.856Z,23.48
2023-05-22T05:10:04.808Z,23.54
2023-05-22T05:11:04.760Z,23.56
2023-05-22T05:12:04.721Z,23.62
2023-05-22T05:13:04.585Z,23.68
2023-05-22T05:14:04.536Z,23.65
2023-05-22T05:15:04.551Z,23.69
2023-05-22T05:16:04.434Z,23.74
2023-05-22T05:17:04.405Z,23.66
2023-05-22T05:18:04.349Z,23.66
2023-05-22T05:19:04.284Z,23.68
2023-05-22T05:20:04.169Z,23.74
2023-05-22T05:21:04.149Z,23.66
2023-05-22T05:22:04.063Z,23.74
2023-05-22T05:23:03.995Z,23.71
2023-05-22T05:24:03.959Z,23.66
2023-05-22T05:25:03.911Z,23.73
2023-05-22T05:26:03.823Z,23.73
2023-05-22T05:27:03.737Z,23.76
2023-05-22T05:28:03.681Z,23.76
2023-05-22T05:29:03.626Z,23.66
2023-05-22T05:30:03.572Z,23.74
2023-05-22T05:31:03.498Z,23.76
2023-05-22T05:32:03.474Z,23.78
2023-05-22T05:33:03.415Z,23.73
2023-05-22T05:34:03.333Z,23.69
2023-05-22T05:35:03.253Z,23.69
2023-05-22T05:36:03.239Z,23.73
2023-05-22T05:37:03.277Z,23.74
2023-05-22T05:38:03.063Z,23.81
2023-05-22T05:39:03.029Z,23.81
2023-05-22T05:40:02.960Z,23.77
2023-05-22T05:41:02.962Z,23.88
2023-05-22T05:42:02.864Z,23.95
2023-05-22T05:43:02.773Z,23.99
2023-05-22T05:44:02.749Z,24.05
2023-05-22T05:45:02.651Z,24.18
2023-05-22T05:46:02.690Z,24.29
2023-05-22T05:47:02.577Z,24.38
2023-05-22T05:48:02.545Z,24.45
2023-05-22T05:49:02.449Z,24.60
2023-05-22T05:50:02.342Z,24.69
2023-05-22T05:51:02.284Z,24.84
2023-05-22T05:52:02.235Z,24.93
2023-05-22T05:53:02.174Z,25.03
2023-05-22T05:54:02.103Z,25.13
2023-05-22T05:55:02.089Z,25.28
2023-05-22T05:56:02.018Z,25.38
2023-05-22T05:57:01.917Z,25.53
2023-05-22T05:58:01.884Z,25.59
2023-05-22T05:59:01.808Z,25.72
2023-05-22T06:00:01.771Z,25.73
2023-05-22T06:01:01.776Z,25.85
2023-05-22T06:02:01.614Z,25.90
2023-05-22T06:03:01.707Z,26.05
2023-05-22T06:04:01.586Z,26.18
2023-05-22T06:05:01.495Z,26.22
2023-05-22T06:06:01.560Z,26.33
2023-05-22T06:07:01.313Z,26.40
2023-05-22T06:08:01.281Z,26.48
2023-05-22T06:09:01.223Z,26.48
2023-05-22T06:10:01.191Z,26.62
2023-05-22T06:11:01.086Z,26.83
2023-05-22T06:12:01.027Z,26.81
2023-05-22T06:13:00.973Z,26.97
2023-05-22T06:14:00.912Z,27.14
2023-05-22T06:15:00.938Z,27.29
2023-05-22T06:16:02.955Z,27.27
2023-05-22T06:17:00.764Z,27.45
2023-05-22T06:18:00.719Z,27.54
2023-05-22T06:19:00.640Z,27.64
2023-05-22T06:20:00.554Z,27.82
2023-05-22T06:21:00.520Z,27.95
2023-05-22T06:22:00.450Z,28.15
2023-05-22T06:23:00.590Z,28.26
2023-05-22T06:24:00.331Z,28.56
2023-05-22T06:25:00.306Z,28.67
2023-05-22T06:26:00.188Z,28.84
2023-05-22T06:27:00.176Z,29.07
2023-05-22T06:28:00.102Z,29.23
2023-05-22T06:29:00.050Z,29.31
2023-05-22T06:29:59.964Z,29.34
2023-05-22T06:31:00.078Z,29.39
2023-05-22T06:31:59.863Z,29.51
2023-05-22T06:32:59.899Z,29.54
2023-05-22T06:33:59.841Z,29.56
2023-05-22T06:34:59.678Z,29.61
2023-05-22T06:35:59.683Z,29.68
2023-05-22T06:36:59.578Z,29.72
2023-05-22T06:37:59.498Z,29.90
2023-05-22T06:38:59.452Z,29.91
2023-05-22T06:39:59.417Z,29.91
2023-05-22T06:40:59.332Z,29.94
2023-05-22T06:41:59.267Z,30.08
2023-05-22T06:42:59.260Z,30.15
2023-05-22T06:43:59.172Z,30.28
2023-05-22T06:44:59.102Z,30.32
2023-05-22T06:45:59.100Z,30.48
2023-05-22T06:46:58.993Z,30.40
2023-05-22T06:47:58.967Z,30.47
2023-05-22T06:48:58.925Z,30.55
2023-05-22T06:49:58.806Z,30.57
2023-05-22T06:50:58.757Z,30.54
2023-05-22T06:51:58.727Z,30.48
2023-05-22T06:52:58.668Z,30.39
2023-05-22T06:53:58.578Z,30.31
2023-05-22T06:54:58.556Z,30.24
2023-05-22T06:55:58.492Z,30.19
2023-05-22T06:56:58.423Z,30.24
2023-05-22T06:57:58.373Z,30.23
2023-05-22T06:58:58.306Z,30.09
2023-05-22T06:59:58.258Z,30.12
2023-05-22T07:00:58.236Z,30.13
2023-05-22T07:01:58.127Z,30.13
2023-05-22T07:02:58.170Z,30.28
2023-05-22T07:03:58.051Z,30.39
2023-05-22T07:04:57.992Z,30.46
2023-05-22T07:05:57.992Z,30.55
2023-05-22T07:06:57.833Z,30.73
2023-05-22T07:07:57.803Z,30.97
2023-05-22T07:08:57.748Z,31.20
2023-05-22T07:09:57.671Z,31.58
2023-05-22T07:10:57.653Z,31.85
2023-05-22T07:11:57.568Z,32.22
2023-05-22T07:12:57.500Z,32.68
2023-05-22T07:13:57.448Z,32.95
2023-05-22T07:14:57.396Z,33.24
2023-05-22T07:15:57.323Z,33.57
2023-05-22T07:16:57.320Z,33.77
2023-05-22T07:17:57.295Z,33.84
2023-05-22T07:18:57.217Z,33.98
2023-05-22T07:19:57.191Z,33.94
2023-05-22T07:20:57.050Z,33.92
2023-05-22T07:21:57.006Z,33.76
2023-05-22T07:22:56.941Z,33.69
2023-05-22T07:23:56.869Z,33.71
2023-05-22T07:24:56.826Z,33.62
2023-05-22T07:25:56.764Z,33.53
2023-05-22T07:26:56.719Z,33.67
2023-05-22T07:27:56.636Z,33.69
2023-05-22T07:28:56.602Z,33.90
2023-05-22T07:29:56.537Z,34.18
2023-05-22T07:30:56.486Z,34.51
2023-05-22T07:31:56.520Z,34.66
2023-05-22T07:32:56.494Z,34.83
2023-05-22T07:33:56.346Z,34.99
2023-05-22T07:34:56.334Z,35.04
2023-05-22T07:35:56.215Z,35.14
2023-05-22T07:36:56.172Z,35.14
2023-05-22T07:37:56.123Z,35.24
2023-05-22T07:38:56.078Z,35.27
2023-05-22T07:39:55.982Z,35.34
2023-05-22T07:40:55.940Z,35.51
2023-05-22T07:41:57.210Z,35.66
2023-05-22T07:42:55.829Z,35.79
2023-05-22T07:43:55.776Z,35.95
2023-05-22T07:44:55.756Z,36.09
2023-05-22T07:45:55.763Z,36.33
2023-05-22T07:46:55.685Z,36.55
2023-05-22T07:47:56.411Z,36.81
2023-05-22T07:48:55.497Z,37.10
2023-05-22T07:49:55.445Z,37.18
2023-05-22T07:50:55.388Z,37.36
2023-05-22T07:51:55.360Z,37.21
2023-05-22T07:52:55.305Z,37.18
2023-05-22T07:53:55.247Z,37.01
2023-05-22T07:54:55.148Z,36.70
2023-05-22T07:55:55.102Z,36.33
2023-05-22T07:56:55.077Z,36.07
2023-05-22T07:57:54.986Z,35.80
2023-05-22T07:58:54.936Z,35.53
2023-05-22T07:59:54.873Z,35.15
2023-05-22T08:00:54.826Z,34.96
2023-05-22T08:01:56.610Z,34.74
2023-05-22T08:02:54.804Z,34.50
2023-05-22T08:03:54.922Z,34.42
2023-05-22T08:04:54.647Z,34.30
2023-05-22T08:05:54.584Z,33.98
2023-05-22T08:06:54.488Z,33.94
2023-05-22T08:07:54.450Z,33.67
2023-05-22T08:08:54.378Z,33.59
2023-05-22T08:09:54.320Z,33.46
2023-05-22T08:11:04.071Z,33.27
2023-05-22T08:11:54.256Z,33.12
2023-05-22T08:12:54.169Z,33.08
2023-05-22T08:13:54.099Z,32.87
2023-05-22T08:14:54.055Z,32.86
2023-05-22T08:16:00.433Z,32.74
2023-05-22T08:16:54.004Z,32.70
2023-05-22T08:17:53.928Z,32.59
2023-05-22T08:18:53.886Z,32.53
2023-05-22T08:19:53.916Z,32.36
2023-05-22T08:20:55.048Z,32.36
2023-05-22T08:21:53.674Z,32.34
2023-05-22T08:22:53.639Z,32.19
2023-05-22T08:23:53.559Z,32.21
2023-05-22T08:24:53.500Z,32.19
2023-05-22T08:25:53.423Z,32.22
2023-05-22T08:26:53.375Z,32.18
2023-05-22T08:27:53.324Z,32.15
2023-05-22T08:28:53.263Z,32.09
2023-05-22T08:29:53.196Z,32.14
2023-05-22T08:30:53.140Z,32.07
2023-05-22T08:31:53.128Z,32.03
2023-05-22T08:32:53.090Z,32.03
2023-05-22T08:33:52.994Z,32.09
2023-05-22T08:34:52.930Z,32.09
2023-05-22T08:35:52.876Z,32.14
2023-05-22T08:36:52.841Z,32.12
2023-05-22T08:37:52.767Z,32.09
2023-05-22T08:38:52.693Z,32.09
2023-05-22T08:39:52.668Z,31.93
2023-05-22T08:40:52.661Z,31.89
2023-05-22T08:41:52.527Z,31.76
2023-05-22T08:42:52.475Z,31.80
2023-05-22T08:43:52.411Z,31.70
2023-05-22T08:44:52.363Z,31.70
2023-05-22T08:45:52.315Z,31.76
2023-05-22T08:46:52.291Z,31.71
2023-05-22T08:47:52.230Z,31.73
2023-05-22T08:48:52.184Z,31.78
2023-05-22T08:49:52.136Z,31.77
2023-05-22T08:50:52.025Z,31.87
2023-05-22T08:51:51.962Z,31.90
2023-05-22T08:52:51.916Z,31.87
2023-05-22T08:53:51.842Z,31.94
2023-05-22T08:54:51.832Z,31.96
2023-05-22T08:55:51.740Z,31.92
2023-05-22T08:56:56.594Z,31.96
2023-05-22T08:57:51.655Z,31.99
2023-05-22T08:58:51.591Z,32.03
2023-05-22T08:59:51.506Z,32.15
2023-05-22T09:00:51.493Z,32.07
2023-05-22T09:01:51.417Z,32.01
2023-05-22T09:02:51.447Z,32.01
2023-05-22T09:03:51.479Z,32.11
2023-05-22T09:04:51.236Z,31.96
2023-05-22T09:05:51.207Z,32.01
2023-05-22T09:06:51.118Z,31.97
2023-05-22T09:07:51.073Z,31.99
2023-05-22T09:08:51.731Z,31.97
2023-05-22T09:09:50.956Z,31.93
2023-05-22T09:10:50.937Z,31.99
2023-05-22T09:11:50.849Z,31.89
2023-05-22T09:12:50.781Z,31.80
2023-05-22T09:13:50.714Z,31.73
2023-05-22T09:14:50.682Z,31.62
2023-05-22T09:15:50.618Z,31.69
2023-05-22T09:16:50.635Z,31.54
2023-05-22T09:17:50.555Z,31.61
2023-05-22T09:18:50.493Z,31.61
2023-05-22T09:19:50.410Z,31.51
2023-05-22T09:20:50.321Z,31.46
2023-05-22T09:21:50.288Z,31.51
2023-05-22T09:22:50.240Z,31.55
2023-05-22T09:23:50.163Z,31.46
2023-05-22T09:24:50.118Z,31.47
2023-05-22T09:25:50.076Z,31.54
2023-05-22T09:26:50.046Z,31.66
2023-05-22T09:27:49.984Z,31.58
2023-05-22T09:28:49.883Z,31.62
2023-05-22T09:29:49.819Z,31.71
2023-05-22T09:30:49.869Z,31.78
2023-05-22T09:31:49.746Z,31.84
2023-05-22T09:32:49.718Z,32.01
2023-05-22T09:33:49.586Z,32.11
2023-05-22T09:34:49.551Z,32.16
2023-05-22T09:35:49.485Z,32.23
2023-05-22T09:36:49.446Z,32.34
2023-05-22T09:37:49.386Z,32.40
2023-05-22T09:38:49.314Z,32.45
2023-05-22T09:39:49.350Z,32.59
2023-05-22T09:40:49.196Z,32.68
2023-05-22T09:41:49.156Z,32.74
2023-05-22T09:42:49.115Z,32.77
2023-05-22T09:43:49.069Z,32.73
2023-05-22T09:44:49.141Z,32.74
2023-05-22T09:45:48.969Z,32.70
2023-05-22T09:46:48.914Z,32.73
2023-05-22T09:47:48.849Z,32.68
2023-05-22T09:48:48.769Z,32.68
2023-05-22T09:49:48.712Z,32.74
2023-05-22T09:50:48.698Z,32.68
2023-05-22T09:51:48.708Z,32.67
2023-05-22T09:52:48.548Z,32.68
2023-05-22T09:53:48.490Z,32.58
2023-05-22T09:54:48.436Z,32.63
2023-05-22T09:55:48.363Z,32.58
2023-05-22T09:56:48.320Z,32.52
2023-05-22T09:57:48.276Z,32.48
2023-05-22T09:58:48.233Z,32.49
2023-05-22T09:59:48.189Z,32.49
2023-05-22T10:00:48.099Z,32.53
2023-05-22T10:01:48.186Z,32.49
2023-05-22T10:02:48.084Z,32.51
2023-05-22T10:03:49.429Z,32.49
2023-05-22T10:04:47.927Z,32.43
2023-05-22T10:05:47.826Z,32.46
2023-05-22T10:06:47.777Z,32.49
2023-05-22T10:07:47.697Z,32.52
2023-05-22T10:08:47.662Z,32.49
2023-05-22T10:09:47.587Z,32.49
2023-05-22T10:10:47.546Z,32.52
2023-05-22T10:11:47.480Z,32.52
2023-05-22T10:12:47.403Z,32.55
2023-05-22T10:13:47.355Z,32.59
2023-05-22T10:14:47.377Z,32.64
2023-05-22T10:15:47.367Z,32.67
2023-05-22T10:16:47.181Z,32.64
2023-05-22T10:17:47.206Z,32.73
2023-05-22T10:18:47.135Z,32.85
2023-05-22T10:19:47.220Z,32.85
2023-05-22T10:20:47.136Z,32.92
2023-05-22T10:21:46.917Z,32.95
2023-05-22T10:22:46.919Z,33.01
2023-05-22T10:23:46.825Z,33.11
2023-05-22T10:24:46.743Z,33.11
2023-05-22T10:25:46.679Z,33.11
2023-05-22T10:26:46.711Z,33.12
2023-05-22T10:27:46.553Z,33.14
2023-05-22T10:28:46.547Z,33.22
2023-05-22T10:29:46.446Z,33.20
2023-05-22T10:30:46.528Z,33.27
2023-05-22T10:31:46.396Z,33.24
2023-05-22T10:32:46.398Z,33.28
2023-05-22T10:33:46.288Z,33.40
2023-05-22T10:34:46.190Z,33.47
2023-05-22T10:35:46.150Z,33.46
2023-05-22T10:36:48.210Z,33.61
2023-05-22T10:37:46.067Z,33.57
2023-05-22T10:38:46.020Z,33.74
2023-05-22T10:39:45.895Z,33.86
2023-05-22T10:40:46.047Z,33.95
2023-05-22T10:41:45.848Z,34.03
2023-05-22T10:42:45.829Z,34.03
2023-05-22T10:43:45.679Z,34.17
2023-05-22T10:44:45.664Z,34.29
2023-05-22T10:45:45.757Z,34.36
2023-05-22T10:46:45.590Z,34.47
2023-05-22T10:47:45.561Z,34.54
2023-05-22T10:48:45.437Z,34.61
2023-05-22T10:49:45.353Z,34.70
2023-05-22T10:50:45.322Z,34.81
2023-05-22T10:51:45.218Z,34.95
2023-05-22T10:52:45.182Z,34.95
2023-05-22T10:53:45.141Z,35.02
2023-05-22T10:54:45.086Z,34.97
2023-05-22T10:55:45.026Z,35.05
2023-05-22T10:56:44.985Z,34.93
2023-05-22T10:57:44.898Z,35.02
2023-05-22T10:58:44.857Z,34.90
2023-05-22T10:59:44.827Z,34.96
2023-05-22T11:00:44.740Z,35.02
2023-05-22T11:01:44.747Z,34.97
2023-05-22T11:02:44.788Z,35.05
2023-05-22T11:03:44.607Z,35.18
2023-05-22T11:04:44.604Z,35.31
2023-05-22T11:05:44.485Z,35.37
2023-05-22T11:06:45.229Z,35.45
2023-05-22T11:07:44.396Z,35.55
2023-05-22T11:08:44.321Z,35.68
2023-05-22T11:09:44.269Z,36.02
2023-05-22T11:10:44.190Z,36.35
2023-05-22T11:11:44.137Z,36.67
2023-05-22T11:12:44.109Z,36.98
2023-05-22T11:13:44.045Z,37.23
2023-05-22T11:14:43.987Z,37.58
2023-05-22T11:15:43.934Z,37.82
2023-05-22T11:16:43.929Z,38.02
2023-05-22T11:17:43.843Z,38.11
2023-05-22T11:18:45.285Z,38.09
2023-05-22T11:19:43.838Z,38.08
2023-05-22T11:20:43.686Z,38.17
2023-05-22T11:21:43.620Z,38.14
2023-05-22T11:22:43.563Z,38.15
2023-05-22T11:23:43.556Z,38.11
2023-05-22T11:24:43.464Z,38.06
2023-05-22T11:25:43.401Z,37.96
2023-05-22T11:26:43.347Z,37.93
2023-05-22T11:27:43.316Z,37.97
2023-05-22T11:28:43.239Z,38.06
2023-05-22T11:29:43.196Z,38.12
2023-05-22T11:30:43.231Z,38.12
2023-05-22T11:31:43.150Z,38.12
2023-05-22T11:32:43.054Z,38.11
2023-05-22T11:33:43.001Z,38.12
2023-05-22T11:34:43.446Z,38.02
2023-05-22T11:35:42.864Z,38.04
2023-05-22T11:36:42.830Z,38.11
2023-05-22T11:37:42.754Z,38.15
2023-05-22T11:38:42.702Z,38.21
2023-05-22T11:39:42.667Z,38.50
2023-05-22T11:40:42.730Z,38.60
2023-05-22T11:41:42.561Z,38.80
2023-05-22T11:42:42.509Z,39.03
2023-05-22T11:43:42.449Z,39.22
2023-05-22T11:44:42.376Z,39.52
2023-05-22T11:45:42.340Z,39.93
2023-05-22T11:46:42.325Z,40.23
2023-05-22T11:47:42.303Z,40.43
2023-05-22T11:48:42.213Z,40.75
2023-05-22T11:49:42.156Z,41.02
2023-05-22T11:50:42.826Z,41.50
2023-05-22T11:51:42.024Z,42.01
2023-05-22T11:52:41.997Z,42.67
2023-05-22T11:53:41.931Z,43.30
2023-05-22T11:54:41.958Z,43.92
2023-05-22T11:55:41.888Z,44.27
2023-05-22T11:56:41.844Z,44.79
2023-05-22T11:57:41.740Z,45.28
2023-05-22T11:58:41.684Z,45.78
2023-05-22T11:59:41.718Z,46.07
2023-05-22T12:00:41.821Z,46.39
2023-05-22T12:01:41.522Z,46.76
2023-05-22T12:02:41.526Z,47.42
2023-05-22T12:03:41.504Z,48.02
2023-05-22T12:04:41.512Z,48.66
2023-05-22T12:05:41.295Z,49.18
2023-05-22T12:06:41.362Z,49.58
2023-05-22T12:07:41.205Z,49.87
2023-05-22T12:08:41.162Z,50.24
2023-05-22T12:09:41.138Z,50.34
2023-05-22T12:10:41.294Z,50.44
2023-05-22T12:11:41.064Z,50.63
2023-05-22T12:12:40.992Z,50.62
2023-05-22T12:13:40.939Z,50.69
2023-05-22T12:14:40.890Z,50.56
2023-05-22T12:15:40.820Z,50.39
2023-05-22T12:16:40.861Z,50.27
2023-05-22T12:17:40.725Z,50.52
2023-05-22T12:18:40.718Z,50.71
2023-05-22T12:19:40.632Z,50.97
2023-05-22T12:20:40.604Z,51.38
2023-05-22T12:21:40.528Z,51.82
2023-05-22T12:22:40.574Z,52.28
2023-05-22T12:23:40.459Z,52.85
2023-05-22T12:24:40.400Z,53.16
2023-05-22T12:25:40.337Z,53.42
2023-05-22T12:26:40.288Z,53.71
2023-05-22T12:27:40.249Z,53.80
2023-05-22T12:28:40.260Z,54.07
2023-05-22T12:29:40.136Z,54.28
2023-05-22T12:30:40.390Z,54.49
2023-05-22T12:31:40.096Z,54.91
2023-05-22T12:32:40.099Z,55.10
2023-05-22T12:33:40.005Z,55.17
2023-05-22T12:34:39.922Z,55.24
2023-05-22T12:35:39.874Z,55.29
2023-05-22T12:36:39.833Z,55.36
2023-05-22T12:37:39.848Z,55.41
2023-05-22T12:38:39.806Z,55.41
2023-05-22T12:39:39.689Z,55.39
2023-05-22T12:40:39.845Z,55.38
2023-05-22T12:41:39.612Z,55.47
2023-05-22T12:42:39.583Z,55.48
2023-05-22T12:43:39.510Z,55.61
2023-05-22T12:44:39.445Z,55.74
2023-05-22T12:45:39.415Z,55.71
2023-05-22T12:46:39.429Z,55.51
2023-05-22T12:47:39.326Z,55.41
2023-05-22T12:48:39.291Z,55.10
2023-05-22T12:49:39.224Z,54.77
2023-05-22T12:50:39.390Z,54.60
2023-05-22T12:51:39.134Z,54.47